Terminal Aerodrome Forecast
Issued by NWS

Home | Current Version | Previous Version | Text Only | Print | Product List | Glossary On
Versions: 1 2 3 4 5 6 7 8 9 10 11 12
280
FTUS46 KHNX 261720
TAFFAT
TAF
KFAT 261720Z 2618/2718 34003KT P6SM SCT100 BKN200
     FM271200 04005KT P6SM BKN050 OVC070 PROB30 2712/2715 P6SM -SHRA
      OVC050
     FM271500 31007KT P6SM OVC040 PROB30 2715/2718 4SM -RA OVC025=

USA.gov is the U.S. government's official web portal to all federal, state and local government web resources and services.